Time;durP1;ratioP1;P1;durP2;ratioP2;P2;SDS_P1;SDS_P2;PMS_P1;PMS_P2;Temp;Humidity;BMP_temperature;BMP_pressure;BME280_temperature;BME280_humidity;BME280_pressure;Samples;Min_cycle;Max_cycle;Signal;HPM_P1;HPM_P2
2022/07/21 01:27:55;;;;;;;0.00;0.00;;;;;;;19.36;100.00;99010.47;4844109;29;2212822;-54
2022/07/21 01:30:22;;;;;;;0.00;0.00;;;;;;;19.36;100.00;99013.13;4936054;29;20312;-54
2022/07/21 01:32:49;;;;;;;0.00;0.00;;;;;;;19.39;100.00;99007.44;4935747;29;20248;-55
2022/07/21 01:35:17;;;;;;;0.00;0.00;;;;;;;19.38;100.00;99010.25;4936035;29;20193;-54
2022/07/21 01:37:47;;;;;;;0.00;0.00;;;;;;;19.40;100.00;99014.38;4932230;29;20260;-52
2022/07/21 01:43:02;;;;;;;0.00;0.00;;;;;;;19.51;100.00;99017.44;4935507;29;20686;-53
2022/07/21 01:45:30;;;;;;;0.00;0.00;;;;;;;19.54;100.00;99017.84;4935903;29;20201;-54
2022/07/21 01:47:58;;;;;;;0.00;0.00;;;;;;;19.55;100.00;99019.47;4935625;29;20291;-54
2022/07/21 01:50:27;;;;;;;0.00;0.00;;;;;;;19.59;100.00;99012.78;4935642;29;20215;-55
2022/07/21 01:52:56;;;;;;;0.00;0.00;;;;;;;19.65;99.66;99013.00;4935432;29;20766;-55
2022/07/21 01:55:25;;;;;;;0.00;0.00;;;;;;;19.77;98.02;99032.56;4935997;29;20560;-55
2022/07/21 01:57:53;;;;;;;0.00;0.00;;;;;;;19.75;98.10;99031.97;4935654;29;20202;-55
2022/07/21 02:00:22;;;;;;;0.00;0.00;;;;;;;19.74;98.40;99027.69;4935609;29;20186;-54
2022/07/21 02:02:48;;;;;;;0.00;0.00;;;;;;;19.66;98.66;99031.31;4935408;29;20281;-54
2022/07/21 02:05:15;;;;;;;0.00;0.00;;;;;;;19.70;97.33;99026.44;4935363;29;20203;-54
2022/07/21 02:07:43;;;;;;;0.00;0.00;;;;;;;19.69;97.12;99030.91;4935472;29;20261;-55
2022/07/21 02:10:11;;;;;;;0.00;0.00;;;;;;;19.71;96.74;99036.81;4935384;29;20208;-52
2022/07/21 02:12:38;;;;;;;0.00;0.00;;;;;;;19.78;97.36;99031.56;4935269;29;20264;-52
2022/07/21 02:15:07;;;;;;;0.00;0.00;;;;;;;19.83;97.60;99038.88;4934996;29;20221;-54
2022/07/21 02:17:36;;;;;;;0.00;0.00;;;;;;;19.83;95.52;99033.59;4935407;29;20197;-53
2022/07/21 02:20:03;;;;;;;0.00;0.00;;;;;;;19.89;94.19;99035.47;4935375;29;20706;-52
2022/07/21 02:22:31;;;;;;;0.00;0.00;;;;;;;19.92;94.72;99032.41;4935037;29;20192;-51
2022/07/21 02:24:58;;;;;;;0.00;0.00;;;;;;;19.94;95.02;99045.47;4934961;29;20224;-53
2022/07/21 02:27:25;;;;;;;0.00;0.00;;;;;;;19.96;93.04;99046.88;4935155;29;20196;-53
2022/07/21 02:29:52;;;;;;;0.00;0.00;;;;;;;19.96;92.63;99044.25;4934800;29;20750;-52
2022/07/21 02:32:20;;;;;;;0.00;0.00;;;;;;;19.96;93.30;99054.03;4935151;29;20193;-53
2022/07/21 02:34:48;;;;;;;0.00;0.00;;;;;;;19.97;91.93;99055.66;4934742;29;20219;-55
2022/07/21 02:37:16;;;;;;;0.00;0.00;;;;;;;19.99;92.27;99054.44;4935171;29;20754;-53
2022/07/21 02:39:45;;;;;;;0.00;0.00;;;;;;;19.98;93.84;99060.75;4934998;29;20608;-51
2022/07/21 02:42:12;;;;;;;0.00;0.00;;;;;;;20.00;92.33;99069.31;4935023;29;20198;-52
2022/07/21 02:44:40;;;;;;;0.00;0.00;;;;;;;20.00;91.54;99076.47;4934540;29;20281;-51
2022/07/21 02:47:07;;;;;;;0.00;0.00;;;;;;;20.03;92.87;99081.38;4935164;29;20201;-51
2022/07/21 02:49:35;;;;;;;0.00;0.00;;;;;;;19.89;95.38;99083.97;4934887;29;20217;-52
2022/07/21 02:52:04;;;;;;;0.00;0.00;;;;;;;19.88;96.45;99098.22;4934913;29;20203;-54
2022/07/21 02:54:33;;;;;;;0.00;0.00;;;;;;;19.77;98.31;99096.13;4934471;29;20275;-55
2022/07/21 02:57:00;;;;;;;0.00;0.00;;;;;;;19.66;100.00;99096.72;4934819;29;20276;-53
2022/07/21 02:59:27;;;;;;;0.00;0.00;;;;;;;19.59;100.00;99099.34;4934907;29;20204;-52
2022/07/21 03:01:55;;;;;;;0.00;0.00;;;;;;;19.51;100.00;99100.31;4934781;29;20280;-54
2022/07/21 03:04:22;;;;;;;0.00;0.00;;;;;;;19.47;100.00;99099.91;4933299;29;20217;-51
2022/07/21 03:06:50;;;;;;;0.00;0.00;;;;;;;19.42;100.00;99094.38;4934908;29;20243;-55
2022/07/21 03:09:19;;;;;;;0.00;0.00;;;;;;;19.35;100.00;99092.72;4934724;29;20233;-51
2022/07/21 03:11:46;;;;;;;0.00;0.00;;;;;;;19.35;100.00;99090.06;4934848;29;20233;-54
2022/07/21 03:14:14;;;;;;;0.00;0.00;;;;;;;19.30;100.00;99088.81;4934441;29;20766;-52
2022/07/21 03:16:42;;;;;;;0.00;0.00;;;;;;;19.27;100.00;99089.22;4934706;29;20198;-53
2022/07/21 03:19:09;;;;;;;0.00;0.00;;;;;;;19.27;100.00;99086.56;4934794;29;20568;-55
2022/07/21 03:21:36;;;;;;;0.00;0.00;;;;;;;19.24;100.00;99084.31;4933155;29;20286;-53
2022/07/21 03:24:05;;;;;;;0.00;0.00;;;;;;;19.18;100.00;99080.63;4934388;29;20220;-56
2022/07/21 03:26:35;;;;;;;0.00;0.00;;;;;;;19.17;100.00;99081.66;4934731;29;20200;-54
2022/07/21 03:29:02;;;;;;;0.00;0.00;;;;;;;19.14;100.00;99076.75;4934397;29;20316;-55
2022/07/21 03:31:30;;;;;;;0.00;0.00;;;;;;;19.12;100.00;99080.59;4934405;29;20300;-53
2022/07/21 03:33:57;;;;;;;0.00;0.00;;;;;;;19.10;100.00;99080.78;4934453;29;20230;-54
2022/07/21 03:36:24;;;;;;;0.00;0.00;;;;;;;19.08;100.00;99085.47;4935720;29;20215;-54
2022/07/21 03:38:51;;;;;;;0.00;0.00;;;;;;;19.02;100.00;99081.78;4938086;29;20196;-53
2022/07/21 03:41:18;;;;;;;0.00;0.00;;;;;;;18.91;100.00;99087.56;4932940;29;20254;-55
2022/07/21 03:43:47;;;;;;;0.00;0.00;;;;;;;18.84;100.00;99084.06;4937863;29;20205;-55
2022/07/21 03:46:14;;;;;;;0.00;0.00;;;;;;;18.83;100.00;99085.09;4938157;29;20187;-56
2022/07/21 03:48:41;;;;;;;0.00;0.00;;;;;;;18.77;100.00;99086.66;4937770;29;20195;-55
2022/07/21 03:51:27;;;;;;;0.00;0.00;;;;;;;18.67;100.00;99097.59;4938011;29;20572;-55
2022/07/21 03:53:54;;;;;;;0.00;0.00;;;;;;;18.64;100.00;99100.59;4937449;29;20214;-56
2022/07/21 03:56:21;;;;;;;0.00;0.00;;;;;;;18.64;100.00;99094.50;4937915;29;20195;-52
2022/07/21 03:58:50;;;;;;;0.00;0.00;;;;;;;18.62;100.00;99099.16;4937853;29;20688;-55
2022/07/21 04:01:18;;;;;;;0.00;0.00;;;;;;;18.58;100.00;99093.44;4937750;29;20235;-54
2022/07/21 04:03:45;;;;;;;0.00;0.00;;;;;;;18.56;100.00;99087.53;4937572;29;20230;-55
2022/07/21 04:06:12;;;;;;;0.00;0.00;;;;;;;18.50;100.00;99089.13;4937671;29;20213;-53
2022/07/21 04:08:39;;;;;;;0.00;0.00;;;;;;;18.47;100.00;99091.31;4937602;29;20705;-54
2022/07/21 04:11:07;;;;;;;0.00;0.00;;;;;;;18.44;100.00;99095.19;4937606;29;20683;-54
2022/07/21 04:13:34;;;;;;;0.00;0.00;;;;;;;18.40;100.00;99084.16;4937233;29;20223;-52
2022/07/21 04:16:03;;;;;;;0.00;0.00;;;;;;;18.37;100.00;99086.38;4937254;29;20192;-53
2022/07/21 04:18:31;;;;;;;0.00;0.00;;;;;;;18.43;100.00;99093.53;4935890;29;20199;-55
2022/07/21 04:20:58;;;;;;;0.00;0.00;;;;;;;18.49;100.00;99087.50;4937292;29;20255;-52
2022/07/21 04:23:24;;;;;;;0.00;0.00;;;;;;;18.53;100.00;99085.28;4936887;29;20566;-55
2022/07/21 04:25:51;;;;;;;0.00;0.00;;;;;;;18.56;100.00;99090.97;4937308;29;20673;-53
2022/07/21 04:28:19;;;;;;;0.00;0.00;;;;;;;18.64;100.00;99092.69;4936947;29;20218;-54
2022/07/21 04:30:46;;;;;;;0.00;0.00;;;;;;;18.73;100.00;99088.06;4937014;29;20279;-56
2022/07/21 04:33:15;;;;;;;0.00;0.00;;;;;;;18.77;100.00;99089.31;4936910;29;20270;-54
2022/07/21 04:35:42;;;;;;;0.00;0.00;;;;;;;18.79;100.00;99094.41;4937270;29;20196;-51
2022/07/21 04:38:10;;;;;;;0.00;0.00;;;;;;;18.77;100.00;99096.44;4937225;29;20206;-52
2022/07/21 04:40:38;;;;;;;0.00;0.00;;;;;;;18.79;100.00;99092.56;4937017;29;20207;-55
2022/07/21 04:43:05;;;;;;;0.00;0.00;;;;;;;18.82;100.00;99091.38;4936284;29;20677;-53
2022/07/21 04:45:33;;;;;;;0.00;0.00;;;;;;;18.79;100.00;99082.00;4920679;29;20504;-53
2022/07/21 04:48:01;;;;;;;0.00;0.00;;;;;;;18.79;100.00;99097.06;4917847;29;20254;-55
2022/07/21 04:50:29;;;;;;;0.00;0.00;;;;;;;18.72;100.00;99097.81;4918023;29;20211;-52
2022/07/21 04:52:58;;;;;;;0.00;0.00;;;;;;;18.68;100.00;99107.16;4917463;29;20207;-52
2022/07/21 04:55:27;;;;;;;0.00;0.00;;;;;;;18.64;100.00;99103.25;4917797;29;20187;-51
2022/07/21 04:57:57;;;;;;;0.00;0.00;;;;;;;18.61;100.00;99102.81;4917791;29;20197;-52
2022/07/21 05:00:26;;;;;;;0.00;0.00;;;;;;;18.61;100.00;99101.00;4917846;29;20655;-54
2022/07/21 05:02:54;;;;;;;0.00;0.00;;;;;;;18.60;100.00;99112.56;4927265;29;20258;-54
2022/07/21 05:05:21;;;;;;;0.00;0.00;;;;;;;18.63;100.00;99104.25;4936840;29;20206;-54
2022/07/21 05:07:50;;;;;;;0.00;0.00;;;;;;;18.65;100.00;99110.19;4936816;29;20218;-52
2022/07/21 05:10:18;;;;;;;0.00;0.00;;;;;;;18.68;100.00;99107.16;4936709;29;20223;-55
2022/07/21 05:12:46;;;;;;;0.00;0.00;;;;;;;18.77;100.00;99120.22;4936567;29;20223;-52
2022/07/21 05:15:13;;;;;;;0.00;0.00;;;;;;;18.83;100.00;99116.81;4936568;29;20187;-54
2022/07/21 05:17:42;;;;;;;0.00;0.00;;;;;;;18.84;100.00;99106.03;4936861;29;20199;-54
2022/07/21 05:20:10;;;;;;;0.00;0.00;;;;;;;18.87;100.00;99118.88;4936583;29;20194;-54
2022/07/21 05:22:37;;;;;;;0.00;0.00;;;;;;;18.93;100.00;99119.94;4936479;29;20250;-56
2022/07/21 05:25:08;;;;;;;0.00;0.00;;;;;;;19.02;100.00;99128.56;4936237;29;20214;-56
2022/07/21 05:27:53;;;;;;;0.00;0.00;;;;;;;19.07;100.00;99126.16;4936660;29;20304;-56
2022/07/21 05:30:21;;;;;;;0.00;0.00;;;;;;;19.13;100.00;99135.13;4936369;29;20196;-53
2022/07/21 05:32:48;;;;;;;0.00;0.00;;;;;;;19.21;100.00;99131.53;4935926;29;20190;-54
2022/07/21 05:35:17;;;;;;;0.00;0.00;;;;;;;19.28;100.00;99127.09;4936279;29;20249;-53
2022/07/21 05:37:46;;;;;;;0.00;0.00;;;;;;;19.50;100.00;99132.31;4936287;29;20197;-52
2022/07/21 05:40:15;;;;;;;0.00;0.00;;;;;;;19.72;100.00;99130.34;4936092;29;20199;-55
2022/07/21 05:42:42;;;;;;;0.00;0.00;;;;;;;19.85;100.00;99130.41;4930096;29;20215;-53
2022/07/21 05:45:10;;;;;;;0.00;0.00;;;;;;;19.99;100.00;99133.13;4935892;29;20215;-53
2022/07/21 05:47:38;;;;;;;0.00;0.00;;;;;;;20.14;100.00;99133.75;4934382;29;20206;-52
2022/07/21 05:50:06;;;;;;;0.00;0.00;;;;;;;20.24;100.00;99133.38;4935808;29;20663;-54
2022/07/21 05:52:34;;;;;;;0.00;0.00;;;;;;;20.30;100.00;99137.88;4934428;29;20204;-51
2022/07/21 05:55:00;;;;;;;0.00;0.00;;;;;;;20.31;99.25;99134.19;4935337;29;20298;-52
2022/07/21 05:57:29;;;;;;;0.00;0.00;;;;;;;20.29;98.02;99128.28;4935559;29;20195;-51
2022/07/21 05:59:57;;;;;;;0.00;0.00;;;;;;;20.30;97.69;99137.88;4935076;29;20532;-54
2022/07/21 06:02:25;;;;;;;0.00;0.00;;;;;;;20.38;98.12;99133.38;4935576;29;20662;-54
2022/07/21 06:04:53;;;;;;;0.00;0.00;;;;;;;20.52;98.10;99140.34;4935252;29;20209;-55
2022/07/21 06:07:20;;;;;;;0.00;0.00;;;;;;;20.63;97.02;99133.59;4935470;29;20200;-55
2022/07/21 06:09:46;;;;;;;0.00;0.00;;;;;;;20.77;97.25;99143.22;4935473;29;20197;-53
2022/07/21 06:12:14;;;;;;;0.00;0.00;;;;;;;20.89;96.00;99138.09;4935588;29;20219;-55
2022/07/21 06:14:42;;;;;;;0.00;0.00;;;;;;;21.05;94.70;99144.00;4918738;29;20231;-56
2022/07/21 06:17:09;;;;;;;0.00;0.00;;;;;;;21.10;92.70;99149.50;4916586;29;20223;-55
2022/07/21 06:19:36;;;;;;;0.00;0.00;;;;;;;21.24;91.68;99144.97;4931843;29;20606;-54
2022/07/21 06:22:04;;;;;;;0.00;0.00;;;;;;;21.25;92.38;99151.91;4935434;29;20237;-53
2022/07/21 06:24:31;;;;;;;0.00;0.00;;;;;;;21.35;91.08;99151.50;4934852;29;20214;-53
2022/07/21 06:26:58;;;;;;;0.00;0.00;;;;;;;21.60;91.29;99148.97;4935233;29;20206;-51
2022/07/21 06:29:26;;;;;;;0.00;0.00;;;;;;;21.75;87.63;99158.53;4935021;29;20209;-52
2022/07/21 06:31:55;;;;;;;0.00;0.00;;;;;;;21.79;80.95;99154.44;4935173;29;20221;-53
2022/07/21 06:34:21;;;;;;;0.00;0.00;;;;;;;21.98;82.40;99158.03;4934842;29;20215;-52
2022/07/21 06:36:49;;;;;;;0.00;0.00;;;;;;;22.30;81.24;99157.22;4934934;29;20286;-52
2022/07/21 06:39:16;;;;;;;0.00;0.00;;;;;;;22.43;78.48;99154.47;4935062;29;20280;-55
2022/07/21 06:41:44;;;;;;;0.00;0.00;;;;;;;22.59;75.21;99153.16;4934971;29;20768;-55
2022/07/21 06:44:13;;;;;;;0.00;0.00;;;;;;;22.91;73.25;99152.28;4933467;29;20707;-52
2022/07/21 06:46:40;;;;;;;0.00;0.00;;;;;;;23.31;72.16;99159.09;4934949;29;20196;-55
2022/07/21 06:49:09;;;;;;;0.00;0.00;;;;;;;23.42;74.26;99159.16;4934964;29;20193;-53
2022/07/21 06:51:36;;;;;;;0.00;0.00;;;;;;;23.53;72.66;99151.47;4934858;29;20274;-53
2022/07/21 06:54:04;;;;;;;0.00;0.00;;;;;;;23.54;68.85;99158.41;4931323;29;20218;-54
2022/07/21 06:56:31;;;;;;;0.00;0.00;;;;;;;23.52;70.74;99165.81;4935074;29;20195;-55
2022/07/21 06:58:59;;;;;;;0.00;0.00;;;;;;;23.13;70.11;99171.31;4934987;29;20199;-50
2022/07/21 07:01:25;;;;;;;0.00;0.00;;;;;;;23.17;72.92;99172.50;4932776;29;20193;-53
2022/07/21 07:03:53;;;;;;;0.00;0.00;;;;;;;23.02;75.35;99167.53;4932130;29;20689;-51
2022/07/21 07:06:23;;;;;;;0.00;0.00;;;;;;;22.99;75.10;99171.44;4931196;29;20259;-52
2022/07/21 07:08:49;;;;;;;0.00;0.00;;;;;;;23.14;75.07;99179.09;4931635;29;20692;-51
2022/07/21 07:11:16;;;;;;;0.00;0.00;;;;;;;23.06;72.45;99184.72;4924763;29;20721;-52
2022/07/21 07:13:44;;;;;;;0.00;0.00;;;;;;;23.20;72.07;99182.72;4932415;29;20779;-52
2022/07/21 07:16:12;;;;;;;0.00;0.00;;;;;;;23.30;73.44;99190.25;4936648;29;20191;-54
2022/07/21 07:18:40;;;;;;;0.00;0.00;;;;;;;23.35;73.28;99182.38;4936393;29;20202;-54
2022/07/21 07:21:07;;;;;;;0.00;0.00;;;;;;;23.25;73.21;99185.56;4936368;29;20188;-51
2022/07/21 07:23:35;;;;;;;0.00;0.00;;;;;;;23.28;72.85;99189.66;4936406;29;20225;-54
2022/07/21 07:26:02;;;;;;;0.00;0.00;;;;;;;23.35;74.33;99179.72;4936053;29;20603;-55
2022/07/21 07:28:29;;;;;;;0.00;0.00;;;;;;;23.44;74.82;99185.59;4923618;29;20199;-55
2022/07/21 07:30:56;;;;;;;0.00;0.00;;;;;;;23.66;69.71;99196.59;4935471;29;20199;-55
2022/07/21 07:33:24;;;;;;;0.00;0.00;;;;;;;23.49;73.24;99191.06;4935001;29;20218;-52
2022/07/21 07:35:52;;;;;;;0.00;0.00;;;;;;;23.61;71.05;99193.78;4934229;29;20203;-51
2022/07/21 07:38:19;;;;;;;0.00;0.00;;;;;;;23.48;71.00;99193.94;4934263;29;20288;-51
2022/07/21 07:40:48;;;;;;;0.00;0.00;;;;;;;23.52;68.35;99195.97;4934968;29;20184;-51
2022/07/21 07:43:16;;;;;;;0.00;0.00;;;;;;;23.40;68.47;99206.50;4936359;29;20211;-52
2022/07/21 07:45:43;;;;;;;0.00;0.00;;;;;;;23.21;68.42;99200.34;4935353;29;20210;-52
2022/07/21 07:48:11;;;;;;;0.00;0.00;;;;;;;23.24;68.00;99201.78;4928474;29;20684;-54
2022/07/21 07:50:38;;;;;;;0.00;0.00;;;;;;;23.30;69.67;99200.91;4931488;29;20241;-53
2022/07/21 07:53:06;;;;;;;0.00;0.00;;;;;;;23.24;69.41;99197.25;4930678;29;20202;-51
2022/07/21 07:55:35;;;;;;;0.00;0.00;;;;;;;23.32;67.51;99198.00;4929375;29;20215;-54
2022/07/21 07:58:04;;;;;;;0.00;0.00;;;;;;;23.54;69.98;99193.06;4931678;29;21062;-55
2022/07/21 08:00:31;;;;;;;0.00;0.00;;;;;;;23.54;68.34;99190.38;4931160;29;20187;-50
2022/07/21 08:02:58;;;;;;;0.00;0.00;;;;;;;23.53;67.60;99199.41;4931099;29;20551;-52
2022/07/21 08:05:26;;;;;;;0.00;0.00;;;;;;;23.51;68.52;99190.84;4931558;29;20208;-50
2022/07/21 08:07:53;;;;;;;0.00;0.00;;;;;;;23.62;66.40;99200.75;4931644;29;20198;-50
2022/07/21 08:10:20;;;;;;;0.00;0.00;;;;;;;23.44;66.32;99197.03;4931715;29;20195;-53
2022/07/21 08:12:48;;;;;;;0.00;0.00;;;;;;;23.58;67.58;99194.25;4931506;29;20219;-52
2022/07/21 08:15:17;;;;;;;0.00;0.00;;;;;;;23.57;67.29;99196.09;4928367;29;20188;-51
2022/07/21 08:17:43;;;;;;;0.00;0.00;;;;;;;23.99;67.35;99189.25;4929472;29;20226;-54
2022/07/21 08:20:11;;;;;;;0.00;0.00;;;;;;;24.31;63.24;99194.38;4930611;29;20225;-53
2022/07/21 08:22:38;;;;;;;0.00;0.00;;;;;;;24.30;65.44;99196.25;4930978;28;20224;-50
2022/07/21 08:25:05;;;;;;;0.00;0.00;;;;;;;24.44;63.31;99191.50;4915933;29;20224;-51
2022/07/21 08:27:32;;;;;;;0.00;0.00;;;;;;;24.60;61.24;99191.91;4917391;29;20318;-52
2022/07/21 08:29:59;;;;;;;0.00;0.00;;;;;;;24.67;63.73;99205.97;4932847;29;20301;-51
2022/07/21 08:32:28;;;;;;;0.00;0.00;;;;;;;24.52;60.93;99201.03;4918461;29;20242;-52
2022/07/21 08:34:55;;;;;;;0.00;0.00;;;;;;;24.27;62.47;99196.69;4920394;29;20223;-51
2022/07/21 08:37:23;;;;;;;0.00;0.00;;;;;;;24.44;62.98;99204.03;4933998;29;20198;-50
2022/07/21 08:39:50;;;;;;;0.00;0.00;;;;;;;24.58;61.18;99194.78;4928377;29;20603;-50
2022/07/21 08:42:18;;;;;;;0.00;0.00;;;;;;;25.15;59.83;99217.53;4932203;29;20194;-52
2022/07/21 08:44:45;;;;;;;0.00;0.00;;;;;;;25.19;58.56;99221.34;4935273;29;20225;-50
2022/07/21 08:47:12;;;;;;;0.00;0.00;;;;;;;25.13;58.80;99229.47;4933438;29;20213;-51
2022/07/21 08:49:42;;;;;;;0.00;0.00;;;;;;;24.64;59.97;99226.94;4936772;29;20193;-50
2022/07/21 08:52:09;;;;;;;0.00;0.00;;;;;;;24.56;61.10;99217.41;4936702;29;20220;-52
2022/07/21 08:54:36;;;;;;;0.00;0.00;;;;;;;24.64;60.56;99221.59;4936442;29;20216;-50
2022/07/21 08:57:03;;;;;;;0.00;0.00;;;;;;;25.20;59.47;99217.63;4936595;29;20196;-52
2022/07/21 08:59:31;;;;;;;0.00;0.00;;;;;;;25.00;58.51;99236.66;4936898;29;20216;-53
2022/07/21 09:01:59;;;;;;;0.00;0.00;;;;;;;24.30;59.33;99228.25;4936558;29;20190;-51
2022/07/21 09:04:28;;;;;;;0.00;0.00;;;;;;;23.61;61.45;99225.78;4936072;29;20212;-53
2022/07/21 09:07:00;;;;;;;0.00;0.00;;;;;;;23.84;61.13;99224.28;4936865;29;20181;-51
2022/07/21 09:09:28;;;;;;;0.00;0.00;;;;;;;23.87;62.27;99215.84;4936390;29;20653;-51
2022/07/21 09:11:59;;;;;;;0.00;0.00;;;;;;;23.95;62.54;99218.22;4936377;29;20752;-52
2022/07/21 09:14:31;;;;;;;0.00;0.00;;;;;;;23.88;62.31;99212.16;4935957;29;20211;-54
2022/07/21 09:17:00;;;;;;;0.00;0.00;;;;;;;24.30;63.03;99208.75;4936390;29;20232;-51
2022/07/21 09:19:31;;;;;;;0.00;0.00;;;;;;;24.58;58.20;99204.66;4936068;29;20237;-53
2022/07/21 09:22:00;;;;;;;0.00;0.00;;;;;;;24.61;58.70;99202.34;4936067;29;20194;-53
2022/07/21 09:24:32;;;;;;;0.00;0.00;;;;;;;24.72;58.04;99206.13;4936062;29;20258;-51
2022/07/21 09:27:09;;;;;;;0.00;0.00;;;;;;;24.80;58.84;99201.50;4936122;29;20207;-51
2022/07/21 09:29:43;;;;;;;0.00;0.00;;;;;;;24.53;57.82;99200.00;4936033;29;20194;-52
2022/07/21 09:32:15;;;;;;;0.00;0.00;;;;;;;24.96;56.77;99208.00;4935909;29;20291;-50
2022/07/21 09:34:43;;;;;;;0.00;0.00;;;;;;;25.23;56.19;99200.31;4934663;29;20715;-51
2022/07/21 09:37:11;;;;;;;0.00;0.00;;;;;;;25.29;54.75;99202.06;4935904;29;20251;-53
2022/07/21 09:39:43;;;;;;;0.00;0.00;;;;;;;25.74;54.43;99205.97;4935913;29;20239;-54
2022/07/21 09:42:32;;;;;;;0.00;0.00;;;;;;;25.54;53.57;99195.69;4936217;29;20559;-49
2022/07/21 09:45:01;;;;;;;0.00;0.00;;;;;;;25.75;52.98;99204.13;4935763;29;20205;-50
2022/07/21 09:47:31;;;;;;;0.00;0.00;;;;;;;26.13;53.12;99205.34;4935885;29;20193;-52
2022/07/21 09:50:17;;;;;;;0.00;0.00;;;;;;;26.47;49.49;99213.50;4936057;29;20248;-50
2022/07/21 09:52:47;;;;;;;0.00;0.00;;;;;;;25.99;51.37;99199.50;4935404;29;20260;-50
2022/07/21 09:55:17;;;;;;;0.00;0.00;;;;;;;26.15;51.09;99200.63;4935528;29;20194;-54
2022/07/21 09:57:45;;;;;;;0.00;0.00;;;;;;;25.86;51.97;99197.09;4935474;29;20663;-49
2022/07/21 10:00:14;;;;;;;0.00;0.00;;;;;;;26.37;48.79;99195.41;4935437;29;20184;-50
2022/07/21 10:02:44;;;;;;;0.00;0.00;;;;;;;26.17;48.77;99200.38;4935287;29;20219;-50
2022/07/21 10:05:14;;;;;;;0.00;0.00;;;;;;;26.43;50.73;99201.66;4935202;29;20220;-49
2022/07/21 10:07:43;;;;;;;0.00;0.00;;;;;;;26.52;49.00;99210.06;4935516;29;20190;-50
2022/07/21 10:10:13;;;;;;;0.00;0.00;;;;;;;26.13;50.13;99204.56;4935366;29;20691;-50
2022/07/21 10:12:40;;;;;;;0.00;0.00;;;;;;;26.50;49.20;99201.50;4935179;29;20254;-50
2022/07/21 10:15:09;;;;;;;0.00;0.00;;;;;;;26.78;48.93;99210.50;4935298;29;20216;-50
2022/07/21 10:17:37;;;;;;;0.00;0.00;;;;;;;27.07;48.75;99202.41;4935249;29;20197;-51
2022/07/21 10:20:12;;;;;;;0.00;0.00;;;;;;;27.20;47.32;99193.19;4935229;29;20246;-51
2022/07/21 10:22:54;;;;;;;0.00;0.00;;;;;;;27.30;48.56;99205.94;4935125;29;20201;-53
2022/07/21 10:25:24;;;;;;;0.00;0.00;;;;;;;27.81;45.69;99208.50;4933786;29;20198;-53
2022/07/21 10:28:17;;;;;;;0.00;0.00;;;;;;;27.59;44.04;99205.78;4935097;29;20201;-51
2022/07/21 10:30:46;;;;;;;0.00;0.00;;;;;;;26.59;47.51;99200.03;4935031;29;20192;-51
2022/07/21 10:33:15;;;;;;;0.00;0.00;;;;;;;26.82;47.08;99209.00;4934588;29;20214;-50
2022/07/21 10:35:44;;;;;;;0.00;0.00;;;;;;;26.46;46.90;99200.38;4934991;29;20197;-53
2022/07/21 10:38:27;;;;;;;0.00;0.00;;;;;;;26.21;48.96;99207.69;4934899;29;20202;-50
2022/07/21 10:40:57;;;;;;;0.00;0.00;;;;;;;26.35;49.99;99204.72;4935017;29;20197;-49
2022/07/21 10:43:40;;;;;;;0.00;0.00;;;;;;;26.16;48.61;99196.09;4935012;29;20209;-50
2022/07/21 10:46:34;;;;;;;0.00;0.00;;;;;;;26.67;46.54;99201.50;4934666;29;20239;-52
2022/07/21 10:49:43;;;;;;;0.00;0.00;;;;;;;26.65;46.93;99193.69;4935223;29;20221;-50
2022/07/21 10:53:00;;;;;;;0.00;0.00;;;;;;;26.85;47.29;99203.16;4934760;29;20265;-50
2022/07/21 10:55:30;;;;;;;0.00;0.00;;;;;;;27.11;45.19;99200.88;4913709;29;20737;-50
2022/07/21 10:58:15;;;;;;;0.00;0.00;;;;;;;27.04;45.95;99195.66;4930355;29;20202;-52
2022/07/21 11:00:53;;;;;;;0.00;0.00;;;;;;;27.77;45.12;99194.75;4934812;29;20195;-50
2022/07/21 11:03:28;;;;;;;0.00;0.00;;;;;;;27.89;42.97;99200.00;4934370;29;20278;-54
2022/07/21 11:06:22;;;;;;;0.00;0.00;;;;;;;27.54;43.62;99195.84;4934961;29;20201;-51
2022/07/21 11:08:51;;;;;;;0.00;0.00;;;;;;;26.87;45.52;99200.25;4935025;29;20597;-50
2022/07/21 11:11:21;;;;;;;0.00;0.00;;;;;;;26.75;46.00;99190.41;4934737;29;20186;-51
2022/07/21 11:14:05;;;;;;;0.00;0.00;;;;;;;27.23;44.24;99190.84;4934606;29;20221;-50
2022/07/21 11:17:01;;;;;;;0.00;0.00;;;;;;;27.03;44.44;99185.19;4934597;29;20283;-50
2022/07/21 11:19:31;;;;;;;0.00;0.00;;;;;;;26.51;47.09;99176.34;4934663;29;20219;-50
2022/07/21 11:22:00;;;;;;;0.00;0.00;;;;;;;27.21;44.77;99178.75;4934500;29;20188;-51
2022/07/21 11:24:28;;;;;;;0.00;0.00;;;;;;;27.45;45.20;99179.34;4934115;29;20262;-51
2022/07/21 11:26:56;;;;;;;0.00;0.00;;;;;;;27.70;45.65;99178.88;4934450;29;20185;-52
2022/07/21 11:29:25;;;;;;;0.00;0.00;;;;;;;28.05;43.00;99179.50;4934271;29;20210;-51
2022/07/21 11:31:53;;;;;;;0.00;0.00;;;;;;;27.62;43.92;99179.31;4934452;29;20194;-51
2022/07/21 11:34:21;;;;;;;0.00;0.00;;;;;;;27.89;42.04;99175.84;4934123;29;20634;-50
2022/07/21 11:36:48;;;;;;;0.00;0.00;;;;;;;27.76;43.86;99176.25;4934433;29;20189;-53
2022/07/21 11:39:19;;;;;;;0.00;0.00;;;;;;;27.88;43.91;99170.72;4934425;29;20261;-50
2022/07/21 11:41:46;;;;;;;0.00;0.00;;;;;;;28.03;43.99;99170.91;4934275;29;20194;-52
2022/07/21 11:44:23;;;;;;;0.00;0.00;;;;;;;27.88;43.10;99168.06;4934001;29;20221;-51
2022/07/21 11:46:56;;;;;;;0.00;0.00;;;;;;;27.95;44.83;99168.66;4934387;29;20193;-51
2022/07/21 11:49:27;;;;;;;0.00;0.00;;;;;;;27.65;44.56;99161.91;4933052;29;20265;-51
2022/07/21 11:51:57;;;;;;;0.00;0.00;;;;;;;27.36;44.12;99162.88;4934184;29;20265;-53
2022/07/21 11:54:26;;;;;;;0.00;0.00;;;;;;;27.69;44.08;99157.66;4933848;29;20306;-52
2022/07/21 11:56:55;;;;;;;0.00;0.00;;;;;;;27.75;42.76;99162.00;4934630;29;20276;-52
2022/07/21 11:59:23;;;;;;;0.00;0.00;;;;;;;27.28;43.21;99165.19;4937657;29;20643;-52
2022/07/21 12:01:58;;;;;;;0.00;0.00;;;;;;;27.53;43.23;99157.50;4937583;29;20657;-50
2022/07/21 12:04:35;;;;;;;0.00;0.00;;;;;;;27.48;44.28;99164.63;4937257;29;20336;-50
2022/07/21 12:07:05;;;;;;;0.00;0.00;;;;;;;28.48;42.82;99155.50;4937675;29;20199;-51
2022/07/21 12:09:32;;;;;;;0.00;0.00;;;;;;;28.66;42.39;99156.94;4937596;29;20188;-51
2022/07/21 12:12:01;;;;;;;0.00;0.00;;;;;;;29.07;40.53;99150.25;4937483;29;20190;-51
2022/07/21 12:14:47;;;;;;;0.00;0.00;;;;;;;28.55;42.46;99161.44;4937050;29;20225;-50
2022/07/21 12:17:17;;;;;;;0.00;0.00;;;;;;;28.75;40.51;99156.47;4937308;29;20198;-50
2022/07/21 12:19:45;;;;;;;0.00;0.00;;;;;;;28.32;43.16;99148.38;4936184;29;20250;-50
2022/07/21 12:22:13;;;;;;;0.00;0.00;;;;;;;28.00;41.49;99149.94;4937269;29;20204;-51
2022/07/21 12:24:52;;;;;;;0.00;0.00;;;;;;;28.21;41.32;99150.16;4937152;29;20287;-51
2022/07/21 12:27:20;;;;;;;0.00;0.00;;;;;;;27.59;43.05;99146.81;4937303;29;20601;-51
2022/07/21 12:29:47;;;;;;;0.00;0.00;;;;;;;27.42;43.88;99139.63;4936919;29;20197;-52
2022/07/21 12:32:42;;;;;;;0.00;0.00;;;;;;;27.15;43.54;99151.09;4937160;29;20232;-51
2022/07/21 12:35:18;;;;;;;0.00;0.00;;;;;;;27.39;45.28;99142.81;4937203;29;20546;-50
2022/07/21 12:38:00;;;;;;;0.00;0.00;;;;;;;27.75;44.00;99150.50;4937065;29;20212;-52
2022/07/21 12:40:28;;;;;;;0.00;0.00;;;;;;;27.93;43.43;99146.63;4937233;29;20189;-52
2022/07/21 12:43:13;;;;;;;0.00;0.00;;;;;;;27.77;43.20;99149.16;4936680;29;20197;-52
2022/07/21 12:45:52;;;;;;;0.00;0.00;;;;;;;28.43;43.64;99145.53;4936947;29;20196;-51
2022/07/21 12:48:22;;;;;;;0.00;0.00;;;;;;;28.40;40.69;99143.34;4936725;29;20276;-49
2022/07/21 12:51:06;;;;;;;0.00;0.00;;;;;;;28.26;41.59;99145.63;4936964;29;20192;-53
2022/07/21 12:53:35;;;;;;;0.00;0.00;;;;;;;28.28;42.50;99148.09;4936301;29;20222;-50
2022/07/21 12:56:04;;;;;;;0.00;0.00;;;;;;;28.31;41.96;99144.06;4935758;29;20257;-51
2022/07/21 12:58:31;;;;;;;0.00;0.00;;;;;;;28.34;42.95;99147.06;4937345;29;20194;-54
2022/07/21 13:00:58;;;;;;;0.00;0.00;;;;;;;28.12;40.71;99145.25;4936527;29;20262;-53
2022/07/21 13:03:30;;;;;;;0.00;0.00;;;;;;;28.12;40.98;99142.56;4936173;29;20213;-53
2022/07/21 13:05:58;;;;;;;0.00;0.00;;;;;;;27.79;42.18;99136.31;4936621;29;20254;-50
2022/07/21 13:08:26;;;;;;;0.00;0.00;;;;;;;27.54;43.81;99142.22;4936428;29;20717;-51
2022/07/21 13:10:53;;;;;;;0.00;0.00;;;;;;;28.00;41.42;99144.56;4936369;29;20663;-50
2022/07/21 13:13:20;;;;;;;0.00;0.00;;;;;;;28.18;42.15;99140.72;4935968;29;20763;-50